Baltimore, Maryland
Traffic Map
Current Weather Conditions
Baltimore, Maryland
Broken Clouds
Broken Clouds

Feels Like: -2°
Wind Chill: -2° Ceiling: 16000
Heat Index: Visibility: 10mi
Dew Point: -5° Wind: 15mph
Humidity: 57% Direction: 290° (WNW)
Pressure: 29.98in Gusts: 0mph
Raw Report DataKBWI 301354Z 29013KT 10SM FEW044 SCT070 BKN160 03/M05 A2998 RMK AO2 SLP153 VIRGA W-N ACSL OHD-SW-NE T00281050
Traffic Incident Summary
Active as of:
Severity:
Category:
InformationThere was an issue retrieving the traffic information for this location. Please try a different location or try again shortly.
Advertisements
Track Severe Weather on mobile